createdAt,value
2022-10-05T00:00:55.710Z,67.95
2022-10-05T00:06:00.862Z,68.05
2022-10-05T00:11:03.878Z,68.72
2022-10-05T00:16:16.122Z,68.58
2022-10-05T00:21:25.375Z,69.16
2022-10-05T00:26:33.223Z,68.73
2022-10-05T00:31:37.259Z,68.95
2022-10-05T00:36:41.893Z,68.64
2022-10-05T00:41:56.987Z,69.19
2022-10-05T00:47:09.672Z,69.18
2022-10-05T00:52:22.006Z,69.08
2022-10-05T00:57:40.100Z,69.18
2022-10-05T01:02:55.477Z,69.36
2022-10-05T01:08:11.620Z,69.20
2022-10-05T01:13:26.453Z,69.46
2022-10-05T01:18:39.166Z,69.71
2022-10-05T01:24:03.591Z,69.31
2022-10-05T01:29:15.893Z,69.31
2022-10-05T01:34:28.849Z,68.95
2022-10-05T01:39:42.309Z,69.26
2022-10-05T01:44:55.890Z,69.42
2022-10-05T01:50:04.710Z,70.29
2022-10-05T01:55:19.644Z,70.59
2022-10-05T02:00:24.267Z,70.68
2022-10-05T02:05:34.015Z,70.46
2022-10-05T02:10:39.694Z,70.69
2022-10-05T02:15:49.637Z,70.94
2022-10-05T02:20:55.024Z,70.73
2022-10-05T02:25:59.350Z,70.70
2022-10-05T02:31:10.237Z,71.11
2022-10-05T02:36:16.578Z,71.75
2022-10-05T02:41:32.615Z,71.31
2022-10-05T02:46:45.229Z,71.92
2022-10-05T02:51:57.363Z,71.63
2022-10-05T02:57:05.898Z,71.97
2022-10-05T03:02:18.461Z,71.44
2022-10-05T03:07:27.638Z,71.63
2022-10-05T03:12:45.686Z,72.80
2022-10-05T03:18:00.965Z,71.27
2022-10-05T03:23:09.255Z,71.40
2022-10-05T03:28:18.376Z,71.95
2022-10-05T03:33:31.713Z,71.62
2022-10-05T03:38:43.559Z,71.67
2022-10-05T03:43:56.591Z,72.76
2022-10-05T03:49:10.601Z,72.71
2022-10-05T03:54:20.923Z,72.33
2022-10-05T03:59:32.371Z,73.16
2022-10-05T04:04:41.120Z,72.95
2022-10-05T04:09:52.174Z,72.96
2022-10-05T04:15:01.545Z,72.99
2022-10-05T04:20:16.354Z,72.25
2022-10-05T04:25:26.033Z,72.93
2022-10-05T04:30:31.749Z,73.27
2022-10-05T04:35:58.450Z,73.13
2022-10-05T04:41:14.193Z,72.66
2022-10-05T04:46:29.826Z,73.19
2022-10-05T04:51:46.570Z,73.52
2022-10-05T04:56:56.768Z,73.54
2022-10-05T05:02:06.753Z,74.25
2022-10-05T05:07:25.185Z,73.86
2022-10-05T05:12:45.022Z,73.46
2022-10-05T05:18:08.687Z,73.48
2022-10-05T05:23:23.753Z,74.24
2022-10-05T05:28:35.181Z,73.84
2022-10-05T05:33:49.837Z,74.48
2022-10-05T05:39:06.045Z,73.73
2022-10-05T05:44:21.276Z,73.88
2022-10-05T05:49:33.252Z,74.02
2022-10-05T05:54:43.356Z,73.61
2022-10-05T05:59:57.532Z,73.66
2022-10-05T06:05:10.836Z,73.62
2022-10-05T06:10:20.297Z,73.49
2022-10-05T06:15:39.496Z,73.42
2022-10-05T06:20:50.413Z,73.06
2022-10-05T06:26:10.908Z,72.97
2022-10-05T06:31:25.166Z,72.03
2022-10-05T06:36:41.764Z,71.78
2022-10-05T06:42:09.298Z,72.75
2022-10-05T06:47:39.047Z,72.08
2022-10-05T06:53:29.148Z,71.81
2022-10-05T06:58:46.629Z,71.67
2022-10-05T07:04:08.143Z,72.67
2022-10-05T07:09:28.313Z,71.35
2022-10-05T07:14:52.951Z,70.70
2022-10-05T07:20:01.019Z,70.11
2022-10-05T07:25:11.518Z,70.61
2022-10-05T07:30:17.014Z,69.46
2022-10-05T07:35:46.322Z,69.74
2022-10-05T07:40:54.100Z,69.78
2022-10-05T07:46:07.648Z,68.22
2022-10-05T07:51:17.230Z,67.19
2022-10-05T07:56:27.470Z,67.34
2022-10-05T08:01:36.286Z,68.14
2022-10-05T08:06:47.325Z,66.63
2022-10-05T08:11:58.069Z,68.28
2022-10-05T08:17:12.312Z,67.44
2022-10-05T08:22:24.535Z,66.14
2022-10-05T08:27:34.675Z,67.48
2022-10-05T08:32:44.315Z,66.63
2022-10-05T08:37:49.053Z,66.56
2022-10-05T08:43:08.253Z,65.81
2022-10-05T08:48:41.755Z,66.07
2022-10-05T08:54:18.721Z,67.25
2022-10-05T08:59:41.646Z,66.84
2022-10-05T09:05:11.589Z,67.31
2022-10-05T09:10:48.261Z,66.96
2022-10-05T09:16:05.527Z,67.81
2022-10-05T09:21:17.159Z,67.64
2022-10-05T09:26:44.017Z,68.73
2022-10-05T09:32:14.238Z,67.79
2022-10-05T09:37:49.732Z,67.01
2022-10-05T09:43:24.199Z,66.40
2022-10-05T09:48:57.542Z,65.01
2022-10-05T09:54:32.637Z,63.98
2022-10-05T10:00:05.024Z,63.57
2022-10-05T10:05:57.827Z,64.41
2022-10-05T10:11:17.404Z,64.12
2022-10-05T10:16:30.691Z,63.84
2022-10-05T10:22:02.832Z,62.69
2022-10-05T10:27:20.933Z,62.98
2022-10-05T10:32:50.814Z,62.17
2022-10-05T10:38:26.471Z,61.26
2022-10-05T10:43:51.262Z,61.02
2022-10-05T10:49:02.353Z,59.48
2022-10-05T10:54:21.018Z,60.22
2022-10-05T10:59:57.061Z,60.30
2022-10-05T11:05:25.568Z,59.05
2022-10-05T11:10:54.682Z,58.57
2022-10-05T11:16:32.093Z,59.18
2022-10-05T11:21:45.657Z,58.19
2022-10-05T11:27:13.495Z,59.58
2022-10-05T11:32:47.364Z,57.44
2022-10-05T11:38:09.459Z,57.90
2022-10-05T11:43:31.416Z,58.55
2022-10-05T11:49:00.373Z,58.48
2022-10-05T11:54:27.653Z,58.26
2022-10-05T11:59:35.859Z,56.65
2022-10-05T12:04:51.178Z,56.44
2022-10-05T12:10:17.841Z,53.93
2022-10-05T12:15:27.100Z,52.72
2022-10-05T12:20:36.981Z,50.71
2022-10-05T12:25:45.802Z,50.24
2022-10-05T12:31:04.212Z,51.91
2022-10-05T12:36:14.645Z,52.16
2022-10-05T12:41:22.946Z,49.84
2022-10-05T12:46:35.996Z,50.74
2022-10-05T12:51:44.105Z,47.67
2022-10-05T12:56:54.361Z,48.03
2022-10-05T13:02:04.706Z,48.63
2022-10-05T13:07:33.491Z,48.19
2022-10-05T13:12:44.715Z,45.00
2022-10-05T13:17:55.829Z,46.39
2022-10-05T13:23:06.821Z,45.26
2022-10-05T13:28:16.613Z,45.01
2022-10-05T13:33:29.526Z,42.67
2022-10-05T13:38:49.455Z,43.55
2022-10-05T13:44:03.289Z,43.71
2022-10-05T13:49:26.510Z,45.08
2022-10-05T13:54:38.924Z,43.82
2022-10-05T13:59:50.929Z,43.88
2022-10-05T14:05:00.323Z,42.97
2022-10-05T14:10:08.306Z,40.85
2022-10-05T14:15:21.794Z,43.29
2022-10-05T14:20:27.000Z,41.71
2022-10-05T14:25:32.328Z,43.11
2022-10-05T14:30:35.163Z,42.07
2022-10-05T14:35:49.999Z,43.15
2022-10-05T14:41:18.381Z,43.85
2022-10-05T14:46:28.551Z,44.07
2022-10-05T14:51:33.580Z,46.54
2022-10-05T14:56:45.868Z,49.52
2022-10-05T15:01:55.944Z,47.35
2022-10-05T15:07:18.222Z,46.43
2022-10-05T15:12:31.719Z,47.45
2022-10-05T15:17:40.110Z,47.25
2022-10-05T15:22:51.023Z,47.46
2022-10-05T15:28:11.438Z,47.92
2022-10-05T15:33:21.912Z,49.12
2022-10-05T15:38:26.503Z,48.65
2022-10-05T15:43:46.961Z,48.69
2022-10-05T15:49:00.591Z,48.86
2022-10-05T15:54:28.507Z,48.95
2022-10-05T15:59:39.677Z,49.76
2022-10-05T16:04:50.630Z,50.55
2022-10-05T16:10:02.220Z,50.41
2022-10-05T16:15:20.236Z,51.67
2022-10-05T16:20:33.108Z,51.40
2022-10-05T16:25:48.064Z,52.74
2022-10-05T16:31:12.702Z,52.34
2022-10-05T16:36:31.836Z,53.61
2022-10-05T16:41:42.875Z,54.43
2022-10-05T16:46:53.690Z,54.92
2022-10-05T16:52:00.277Z,55.20
2022-10-05T16:57:10.801Z,55.72
2022-10-05T17:02:27.721Z,55.73
2022-10-05T17:07:47.818Z,56.12
2022-10-05T17:13:02.462Z,55.34
2022-10-05T17:18:27.227Z,55.97
2022-10-05T17:23:44.573Z,55.53
2022-10-05T17:29:01.212Z,56.45
2022-10-05T17:34:27.792Z,56.25
2022-10-05T17:39:51.120Z,56.87
2022-10-05T17:44:55.682Z,57.22
2022-10-05T17:50:18.372Z,57.48
2022-10-05T17:55:29.965Z,57.98
2022-10-05T18:00:50.164Z,58.17
2022-10-05T18:06:26.300Z,57.98
2022-10-05T18:11:41.242Z,58.84
2022-10-05T18:17:00.857Z,59.28
2022-10-05T18:22:26.278Z,58.61
2022-10-05T18:27:58.321Z,59.34
2022-10-05T18:33:27.185Z,59.79
2022-10-05T18:38:44.400Z,60.41
2022-10-05T18:43:59.154Z,60.35
2022-10-05T18:49:16.172Z,61.59
2022-10-05T18:54:35.713Z,61.31
2022-10-05T18:59:47.343Z,62.15
2022-10-05T19:05:23.629Z,61.58
2022-10-05T19:10:38.477Z,62.51
2022-10-05T19:15:55.043Z,63.91
2022-10-05T19:21:09.103Z,64.09
2022-10-05T19:26:16.250Z,63.18
2022-10-05T19:31:31.504Z,63.75
2022-10-05T19:36:46.125Z,63.84
2022-10-05T19:41:58.829Z,63.05
2022-10-05T19:47:07.029Z,63.64
2022-10-05T19:52:21.020Z,63.94
2022-10-05T19:57:25.092Z,63.33
2022-10-05T20:02:29.281Z,63.49
2022-10-05T20:07:34.299Z,63.36
2022-10-05T20:12:50.521Z,62.20
2022-10-05T20:18:12.409Z,62.45
2022-10-05T20:23:22.971Z,61.55
2022-10-05T20:28:33.003Z,62.62
2022-10-05T20:33:38.957Z,62.42
2022-10-05T20:38:41.705Z,62.46
2022-10-05T20:43:44.378Z,62.39
2022-10-05T20:48:48.452Z,63.32
2022-10-05T20:53:51.126Z,62.61
2022-10-05T20:58:53.758Z,62.11
2022-10-05T21:03:57.753Z,63.03
2022-10-05T21:09:00.547Z,62.23
2022-10-05T21:14:05.733Z,62.88
2022-10-05T21:19:12.238Z,62.98
2022-10-05T21:24:17.252Z,62.42
2022-10-05T21:29:19.917Z,62.26
2022-10-05T21:34:24.255Z,62.75
2022-10-05T21:39:27.289Z,64.33
2022-10-05T21:44:29.957Z,63.80
2022-10-05T21:49:34.549Z,63.11
2022-10-05T21:54:38.373Z,64.33
2022-10-05T21:59:41.504Z,63.06
2022-10-05T22:04:45.515Z,63.88
2022-10-05T22:09:48.677Z,63.90
2022-10-05T22:14:51.405Z,63.80
2022-10-05T22:19:56.789Z,64.46
2022-10-05T22:24:59.618Z,64.25
2022-10-05T22:30:03.691Z,63.55
2022-10-05T22:35:11.516Z,63.51
2022-10-05T22:40:14.605Z,63.17
2022-10-05T22:45:17.505Z,64.59
2022-10-05T22:50:21.728Z,66.62
2022-10-05T22:55:24.952Z,65.11
2022-10-05T23:00:46.488Z,64.85
2022-10-05T23:05:56.546Z,65.04
2022-10-05T23:11:03.413Z,65.50
2022-10-05T23:16:08.198Z,64.28
2022-10-05T23:21:12.852Z,64.96
2022-10-05T23:26:17.033Z,66.37
2022-10-05T23:31:21.937Z,77.02
2022-10-05T23:36:28.012Z,83.52
2022-10-05T23:41:30.743Z,85.13
2022-10-05T23:46:33.545Z,85.34
2022-10-05T23:51:37.689Z,88.90
2022-10-05T23:56:40.608Z,87.65
